Time;durP1;ratioP1;P1;durP2;ratioP2;P2;SDS_P1;SDS_P2;PMS_P1;PMS_P2;Temp;Humidity;BMP_temperature;BMP_pressure;BME280_temperature;BME280_humidity;BME280_pressure;Samples;Min_cycle;Max_cycle;Signal;HPM_P1;HPM_P2
2022/01/09 00:01:26;;;;;;;4.78;3.75;;;4.10;99.90;;;;;;5004500;28;20392;-88
2022/01/09 00:03:52;;;;;;;4.75;4.00;;;4.20;99.90;;;;;;5003615;28;20522;-86
2022/01/09 00:06:18;;;;;;;4.95;3.80;;;4.20;99.90;;;;;;4988173;28;20050;-87
2022/01/09 00:08:44;;;;;;;3.47;3.03;;;4.20;99.90;;;;;;5002753;28;20053;-87
2022/01/09 00:11:14;;;;;;;6.15;3.90;;;4.10;99.90;;;;;;4992623;28;20056;-86
2022/01/09 00:13:41;;;;;;;4.70;3.42;;;4.10;99.90;;;;;;5002825;28;20084;-86
2022/01/09 00:16:07;;;;;;;5.57;3.45;;;4.10;99.90;;;;;;5020650;28;20420;-88
2022/01/09 00:18:33;;;;;;;3.58;3.28;;;4.10;99.90;;;;;;5009009;28;20038;-88
2022/01/09 00:21:05;;;;;;;5.00;3.58;;;4.10;99.90;;;;;;5009382;28;20033;-87
2022/01/09 00:23:34;;;;;;;4.97;3.83;;;4.10;99.90;;;;;;5019743;28;20081;-87
2022/01/09 00:26:00;;;;;;;4.43;3.33;;;4.10;99.90;;;;;;5003066;28;20056;-87
2022/01/09 00:28:26;;;;;;;4.15;3.53;;;4.10;99.90;;;;;;5003107;28;20404;-88
2022/01/09 00:30:52;;;;;;;5.25;3.92;;;4.10;99.90;;;;;;5002111;28;20034;-88
2022/01/09 00:33:21;;;;;;;5.05;4.03;;;4.10;99.90;;;;;;5029554;28;20049;-88
2022/01/09 00:35:47;;;;;;;5.15;3.85;;;4.10;99.90;;;;;;5010033;28;20092;-87
2022/01/09 00:38:13;;;;;;;4.43;3.63;;;4.10;99.90;;;;;;5026425;28;20080;-87
2022/01/09 00:40:38;;;;;;;4.13;3.70;;;4.10;99.90;;;;;;5027167;28;20131;-85
2022/01/09 00:43:08;;;;;;;4.13;3.38;;;4.10;99.90;;;;;;5027481;28;20143;-87
2022/01/09 00:45:34;;;;;;;4.20;3.30;;;4.10;99.90;;;;;;5007492;28;20052;-87
2022/01/09 00:48:00;;;;;;;3.72;3.28;;;4.00;99.90;;;;;;5030312;28;20049;-87
2022/01/09 00:50:26;;;;;;;4.63;3.50;;;4.10;99.90;;;;;;5033271;28;20050;-86
2022/01/09 00:52:51;;;;;;;4.35;3.42;;;4.10;99.90;;;;;;5012180;28;20076;-86
2022/01/09 00:55:18;;;;;;;5.03;3.55;;;4.10;99.90;;;;;;4991076;28;20411;-87
2022/01/09 00:57:44;;;;;;;4.63;3.72;;;4.10;99.90;;;;;;5023992;28;20042;-85
2022/01/09 01:00:11;;;;;;;3.63;3.10;;;4.10;99.90;;;;;;5024485;28;20037;-87
2022/01/09 01:02:37;;;;;;;3.97;3.10;;;4.10;99.90;;;;;;5007905;28;20042;-87
2022/01/09 01:05:04;;;;;;;3.33;2.80;;;4.10;99.90;;;;;;5009155;28;20073;-87
2022/01/09 01:07:30;;;;;;;4.50;3.25;;;4.00;99.90;;;;;;5015785;28;20057;-87
2022/01/09 01:09:59;;;;;;;4.18;3.20;;;4.30;99.90;;;;;;5009124;28;20099;-84
2022/01/09 01:12:27;;;;;;;5.45;4.05;;;4.10;99.90;;;;;;5009583;28;20395;-87
2022/01/09 01:14:52;;;;;;;4.72;3.42;;;4.00;99.90;;;;;;5005774;28;20054;-87
2022/01/09 01:17:20;;;;;;;4.05;3.08;;;4.10;99.90;;;;;;5029851;28;20037;-86
2022/01/09 01:19:46;;;;;;;5.20;3.42;;;4.10;99.90;;;;;;5024351;28;20053;-88
2022/01/09 01:22:13;;;;;;;4.60;3.10;;;4.20;99.90;;;;;;5028135;28;20037;-87
2022/01/09 01:24:39;;;;;;;4.43;3.55;;;4.10;99.90;;;;;;5025277;28;20458;-85
2022/01/09 01:27:05;;;;;;;5.47;3.80;;;4.10;99.90;;;;;;5005611;28;20046;-86
2022/01/09 01:29:31;;;;;;;4.45;3.47;;;5.10;99.90;;;;;;5005337;28;20046;-86
2022/01/09 01:31:56;;;;;;;3.83;2.55;;;4.10;99.90;;;;;;5026595;28;20069;-85
2022/01/09 01:34:22;;;;;;;3.67;2.78;;;4.60;99.90;;;;;;4995788;28;20088;-87
2022/01/09 01:36:48;;;;;;;3.95;3.03;;;4.10;99.90;;;;;;5024716;28;20029;-86
2022/01/09 01:39:13;;;;;;;4.93;3.22;;;4.10;99.90;;;;;;5005667;28;20092;-83
2022/01/09 01:41:39;;;;;;;3.30;2.67;;;4.10;99.90;;;;;;5030155;28;20029;-87
2022/01/09 01:44:09;;;;;;;3.08;2.40;;;4.10;99.90;;;;;;5022634;28;20189;-86
2022/01/09 01:46:35;;;;;;;2.83;2.22;;;4.10;99.90;;;;;;5026485;28;20045;-86
2022/01/09 01:49:01;;;;;;;3.60;2.40;;;4.00;99.90;;;;;;5023636;28;21513;-85
2022/01/09 01:51:27;;;;;;;4.50;3.10;;;4.10;99.90;;;;;;5027905;28;20040;-87
2022/01/09 01:53:54;;;;;;;4.00;3.03;;;4.10;99.90;;;;;;5024569;28;20045;-85
2022/01/09 01:56:20;;;;;;;4.05;2.97;;;4.10;99.90;;;;;;5024015;28;20045;-85
2022/01/09 01:58:47;;;;;;;2.60;2.40;;;4.10;99.90;;;;;;5005010;28;20049;-86
2022/01/09 02:01:12;;;;;;;4.05;2.88;;;4.10;99.90;;;;;;5006952;28;20045;-84
2022/01/09 02:03:38;;;;;;;2.83;2.10;;;4.10;99.90;;;;;;5028042;28;20122;-87
2022/01/09 02:06:04;;;;;;;3.53;2.55;;;4.10;99.90;;;;;;5008513;28;20097;-86
2022/01/09 02:08:31;;;;;;;3.45;2.35;;;4.10;99.90;;;;;;5004646;28;20404;-87
2022/01/09 02:10:57;;;;;;;2.90;2.47;;;4.10;99.90;;;;;;5004973;28;20074;-84
2022/01/09 02:13:23;;;;;;;3.78;2.63;;;4.10;99.90;;;;;;5007137;28;20068;-85
2022/01/09 02:15:49;;;;;;;3.38;2.40;;;4.10;99.90;;;;;;5032793;28;20041;-86
2022/01/09 02:18:20;;;;;;;2.65;2.30;;;4.10;99.90;;;;;;5022818;28;20055;-84
2022/01/09 02:20:47;;;;;;;3.65;2.72;;;4.10;99.90;;;;;;5022466;28;20042;-87
2022/01/09 02:23:15;;;;;;;3.92;2.30;;;4.10;99.90;;;;;;5028953;28;20045;-86
2022/01/09 02:25:42;;;;;;;3.25;2.40;;;4.10;99.90;;;;;;5022371;28;20112;-86
2022/01/09 02:28:09;;;;;;;2.40;1.70;;;4.10;99.90;;;;;;5005483;28;20077;-86
2022/01/09 02:30:35;;;;;;;3.72;2.40;;;4.20;99.90;;;;;;5027724;28;20053;-84
2022/01/09 02:33:04;;;;;;;3.97;2.70;;;4.20;99.90;;;;;;5028857;28;20048;-88
2022/01/09 02:35:30;;;;;;;4.55;3.40;;;4.20;99.90;;;;;;5021610;28;20053;-85
2022/01/09 02:37:56;;;;;;;5.50;4.07;;;4.20;99.90;;;;;;5022195;28;20492;-86
2022/01/09 02:40:23;;;;;;;5.63;4.25;;;4.20;99.90;;;;;;5024311;28;20093;-86
2022/01/09 02:42:53;;;;;;;4.45;3.58;;;4.20;99.90;;;;;;5008452;28;20038;-86
2022/01/09 02:45:21;;;;;;;4.38;3.53;;;4.20;99.90;;;;;;5021993;28;20057;-87
2022/01/09 02:47:48;;;;;;;4.47;3.67;;;4.20;99.90;;;;;;5021565;28;20045;-82
2022/01/09 02:50:29;;;;;;;4.05;3.00;;;4.20;99.90;;;;;;5027155;28;20135;-86
2022/01/09 02:52:58;;;;;;;5.13;3.35;;;4.20;99.90;;;;;;5009050;28;20046;-86
2022/01/09 02:55:26;;;;;;;5.38;3.53;;;4.20;99.90;;;;;;5004300;28;20376;-87
2022/01/09 02:57:55;;;;;;;4.40;2.72;;;4.30;99.90;;;;;;5003761;28;20049;-86
2022/01/09 03:00:26;;;;;;;4.07;2.60;;;4.70;99.90;;;;;;5029055;28;20049;-87
2022/01/09 03:02:52;;;;;;;3.28;1.90;;;4.30;99.90;;;;;;5020545;28;20029;-87
2022/01/09 03:05:18;;;;;;;3.08;1.70;;;4.40;99.90;;;;;;5022223;28;20034;-84
2022/01/09 03:07:45;;;;;;;3.92;2.08;;;4.40;99.90;;;;;;5024608;28;20128;-85
2022/01/09 03:10:13;;;;;;;6.63;2.42;;;4.40;99.90;;;;;;5024574;28;20124;-85
2022/01/09 03:12:39;;;;;;;4.78;2.65;;;4.40;99.90;;;;;;5006326;28;20609;-86
2022/01/09 03:15:06;;;;;;;4.28;1.75;;;4.50;99.90;;;;;;5025550;28;20053;-87
2022/01/09 03:17:32;;;;;;;5.15;1.70;;;4.50;99.90;;;;;;5005829;28;20045;-86
2022/01/09 03:19:58;;;;;;;5.60;1.58;;;4.60;99.90;;;;;;5024949;28;20044;-87
2022/01/09 03:22:23;;;;;;;11.68;1.63;;;4.60;99.90;;;;;;5012325;28;20452;-86
2022/01/09 03:24:49;;;;;;;13.30;1.98;;;4.80;99.90;;;;;;5021138;28;20125;-88
2022/01/09 03:27:15;;;;;;;11.75;2.20;;;5.10;99.90;;;;;;5003178;28;20073;-85
2022/01/09 03:29:41;;;;;;;19.80;2.20;;;5.30;99.90;;;;;;5006466;28;20080;-87
2022/01/09 03:32:08;;;;;;;14.65;1.67;;;5.40;99.90;;;;;;5023190;28;20041;-88
2022/01/09 03:34:34;;;;;;;18.02;2.58;;;5.50;99.90;;;;;;5006056;28;20408;-88
2022/01/09 03:37:00;;;;;;;18.38;1.30;;;5.60;99.90;;;;;;5025846;28;20030;-87
2022/01/09 03:39:25;;;;;;;8.88;1.50;;;5.60;99.90;;;;;;5021355;28;20053;-88
2022/01/09 03:41:51;;;;;;;12.68;1.30;;;5.70;99.90;;;;;;5010202;28;20132;-88
2022/01/09 03:44:17;;;;;;;10.48;1.23;;;5.60;99.90;;;;;;5003122;28;20511;-88
2022/01/09 03:46:42;;;;;;;6.93;0.80;;;5.70;99.90;;;;;;5005722;28;20044;-88
2022/01/09 03:49:08;;;;;;;16.50;1.23;;;5.70;99.90;;;;;;5006405;28;20147;-88
2022/01/09 03:51:37;;;;;;;7.50;1.15;;;5.70;99.90;;;;;;5023008;28;20050;-88
2022/01/09 03:54:04;;;;;;;6.70;1.27;;;5.70;99.90;;;;;;5020630;28;20049;-88
2022/01/09 03:56:30;;;;;;;8.23;0.98;;;5.60;99.90;;;;;;5020714;28;20511;-88
2022/01/09 03:58:56;;;;;;;5.28;1.33;;;5.60;99.90;;;;;;5024161;28;20037;-87
2022/01/09 04:01:21;;;;;;;8.55;1.10;;;5.60;99.90;;;;;;5023959;28;20472;-87
2022/01/09 04:03:47;;;;;;;11.40;1.48;;;5.60;99.90;;;;;;5000479;28;20052;-87
2022/01/09 04:06:13;;;;;;;9.95;1.45;;;5.50;99.90;;;;;;5023648;28;20128;-86
2022/01/09 04:08:39;;;;;;;8.85;1.20;;;5.50;99.90;;;;;;5005397;28;20056;-86
2022/01/09 04:11:05;;;;;;;11.75;1.60;;;5.40;99.90;;;;;;5023847;28;20068;-87
2022/01/09 04:13:31;;;;;;;7.05;0.93;;;5.40;99.90;;;;;;5022616;28;20046;-87
2022/01/09 04:15:58;;;;;;;7.63;0.90;;;5.40;99.90;;;;;;5024085;28;20038;-85
2022/01/09 04:18:24;;;;;;;13.07;1.92;;;6.20;99.90;;;;;;5023828;28;20041;-86
2022/01/09 04:20:51;;;;;;;10.73;1.45;;;5.40;99.90;;;;;;5015562;28;20103;-85
2022/01/09 04:23:18;;;;;;;7.53;0.98;;;5.40;99.90;;;;;;5006387;28;20049;-85
2022/01/09 04:25:45;;;;;;;5.22;0.80;;;5.40;99.90;;;;;;5021870;28;20053;-85
2022/01/09 04:28:12;;;;;;;17.35;2.20;;;5.30;99.90;;;;;;5020280;28;20038;-86
2022/01/09 04:30:38;;;;;;;11.15;1.38;;;5.30;99.90;;;;;;5020535;28;20548;-87
2022/01/09 04:33:04;;;;;;;26.80;3.85;;;5.30;99.90;;;;;;5009348;28;20200;-88
2022/01/09 04:35:29;;;;;;;25.98;3.50;;;5.40;99.90;;;;;;5020073;28;20047;-87
2022/01/09 04:37:55;;;;;;;30.88;3.28;;;5.60;99.90;;;;;;5021727;28;20073;-86
2022/01/09 04:40:21;;;;;;;20.73;2.53;;;5.60;99.90;;;;;;5023623;28;20052;-87
2022/01/09 04:42:53;;;;;;;33.88;3.85;;;5.60;99.90;;;;;;5003071;28;20072;-87
2022/01/09 04:45:20;;;;;;;22.48;2.55;;;5.70;99.90;;;;;;5007651;28;20065;-85
2022/01/09 04:47:48;;;;;;;19.45;2.88;;;5.70;99.90;;;;;;5020674;28;20053;-85
2022/01/09 04:50:20;;;;;;;27.08;3.90;;;6.50;99.90;;;;;;5023599;28;20120;-81
2022/01/09 04:52:46;;;;;;;27.42;2.97;;;5.90;99.90;;;;;;5021261;28;20104;-87
2022/01/09 04:55:12;;;;;;;11.63;1.85;;;5.90;99.90;;;;;;5002442;28;20089;-87
2022/01/09 04:57:38;;;;;;;22.27;2.88;;;5.90;99.90;;;;;;5002444;28;20042;-87
2022/01/09 05:00:06;;;;;;;25.92;2.65;;;6.10;99.90;;;;;;5022408;28;20107;-87
2022/01/09 05:02:32;;;;;;;25.88;2.97;;;6.20;99.90;;;;;;4988368;28;20088;-87
2022/01/09 05:04:58;;;;;;;21.88;3.50;;;6.10;99.90;;;;;;5029828;28;20046;-84
2022/01/09 05:07:24;;;;;;;25.10;3.95;;;6.10;99.90;;;;;;5005493;28;20056;-86
2022/01/09 05:09:49;;;;;;;30.38;3.70;;;6.10;99.90;;;;;;5022458;28;20116;-87
2022/01/09 05:12:15;;;;;;;28.63;2.25;;;6.30;99.90;;;;;;5005377;28;20053;-86
2022/01/09 05:14:41;;;;;;;22.65;2.17;;;6.60;99.90;;;;;;5023379;28;20104;-87
2022/01/09 05:17:06;;;;;;;18.27;2.22;;;6.30;99.90;;;;;;5020469;28;20160;-87
2022/01/09 05:19:34;;;;;;;19.65;2.58;;;6.20;99.90;;;;;;5004256;28;20393;-86
2022/01/09 05:22:01;;;;;;;27.08;2.85;;;6.20;99.90;;;;;;5023623;28;20034;-86
2022/01/09 05:24:27;;;;;;;18.50;2.15;;;6.10;99.90;;;;;;5029404;28;20053;-86
2022/01/09 05:26:54;;;;;;;15.88;1.67;;;6.10;99.90;;;;;;5023466;28;20034;-86
2022/01/09 05:29:20;;;;;;;27.75;3.45;;;6.10;99.90;;;;;;5010165;28;20077;-86
2022/01/09 05:31:48;;;;;;;18.05;2.83;;;6.40;99.90;;;;;;5024056;28;20551;-84
2022/01/09 05:34:14;;;;;;;13.80;1.30;;;6.10;99.90;;;;;;5007424;28;20052;-79
2022/01/09 05:36:40;;;;;;;15.25;2.00;;;6.00;99.90;;;;;;5008890;28;20044;-85
2022/01/09 05:39:06;;;;;;;12.73;2.53;;;6.60;99.90;;;;;;5039211;28;20488;-87
2022/01/09 05:41:31;;;;;;;17.58;2.40;;;6.10;99.90;;;;;;5023005;28;20116;-86
2022/01/09 05:43:57;;;;;;;17.08;1.98;;;6.00;99.90;;;;;;5029858;28;20095;-87
2022/01/09 05:46:23;;;;;;;16.13;2.00;;;6.40;99.90;;;;;;5005315;28;20488;-84
2022/01/09 05:48:49;;;;;;;14.02;2.58;;;6.00;99.90;;;;;;5008486;28;20049;-87
2022/01/09 05:51:15;;;;;;;17.63;2.28;;;6.00;99.90;;;;;;5023356;28;20057;-85
2022/01/09 05:53:40;;;;;;;18.15;2.42;;;6.00;99.90;;;;;;5009794;28;20046;-87
2022/01/09 05:56:06;;;;;;;11.50;1.77;;;6.00;99.90;;;;;;5024798;28;20034;-86
2022/01/09 05:58:33;;;;;;;13.00;1.65;;;6.00;99.90;;;;;;5005400;28;20046;-88
2022/01/09 06:00:59;;;;;;;26.50;4.13;;;6.70;99.90;;;;;;5000963;28;20120;-84
2022/01/09 06:03:24;;;;;;;11.48;1.70;;;6.00;99.90;;;;;;5026710;28;20080;-87
2022/01/09 06:05:51;;;;;;;18.75;2.00;;;6.80;99.90;;;;;;5008087;28;20081;-84
2022/01/09 06:08:17;;;;;;;8.23;1.63;;;6.20;99.90;;;;;;5023493;28;20052;-85
2022/01/09 06:10:43;;;;;;;9.05;1.58;;;6.00;99.90;;;;;;5022657;28;20041;-86
2022/01/09 06:13:08;;;;;;;12.90;1.50;;;5.90;99.90;;;;;;5023580;28;20061;-86
2022/01/09 06:15:34;;;;;;;22.80;1.75;;;6.00;99.90;;;;;;5014984;28;20048;-86
2022/01/09 06:17:59;;;;;;;13.18;1.10;;;5.90;99.90;;;;;;5025463;28;20056;-86
2022/01/09 06:20:25;;;;;;;14.73;2.83;;;5.90;99.90;;;;;;5022670;28;20250;-85
2022/01/09 06:22:51;;;;;;;11.20;1.30;;;6.10;99.90;;;;;;5009814;28;20068;-84
2022/01/09 06:25:17;;;;;;;8.52;1.38;;;5.90;99.90;;;;;;5006072;28;20124;-86
2022/01/09 06:27:42;;;;;;;11.63;1.40;;;5.80;99.90;;;;;;5025775;28;20045;-86
2022/01/09 06:30:09;;;;;;;13.38;1.35;;;6.30;99.90;;;;;;5006363;28;20045;-86
2022/01/09 06:32:35;;;;;;;11.50;1.48;;;6.20;99.90;;;;;;5007125;28;20088;-85
2022/01/09 06:35:02;;;;;;;11.40;1.08;;;5.70;99.90;;;;;;5007355;28;20041;-86
2022/01/09 06:37:27;;;;;;;11.30;1.63;;;5.80;99.90;;;;;;5010431;28;20373;-84
2022/01/09 06:39:53;;;;;;;15.60;2.15;;;6.40;99.90;;;;;;5025453;28;20044;-84
2022/01/09 06:42:18;;;;;;;18.40;1.85;;;6.50;99.90;;;;;;5006240;28;20103;-83
2022/01/09 06:44:44;;;;;;;25.55;2.75;;;5.80;99.90;;;;;;5024716;28;20077;-82
2022/01/09 06:47:10;;;;;;;11.45;1.15;;;5.70;99.90;;;;;;5007989;28;20037;-82
2022/01/09 06:49:36;;;;;;;14.40;1.42;;;5.70;99.90;;;;;;4990349;28;20046;-85
2022/01/09 06:52:03;;;;;;;12.30;0.93;;;5.60;99.90;;;;;;5025203;28;20067;-85
2022/01/09 06:54:29;;;;;;;14.10;1.60;;;5.60;99.90;;;;;;5023855;28;20049;-84
2022/01/09 06:56:55;;;;;;;11.48;1.60;;;5.60;99.90;;;;;;5007011;28;20041;-84
2022/01/09 06:59:20;;;;;;;12.75;2.22;;;5.60;99.90;;;;;;5024199;28;20042;-85
2022/01/09 07:01:46;;;;;;;11.43;1.33;;;6.20;99.90;;;;;;5002993;28;20045;-85
2022/01/09 07:04:12;;;;;;;8.38;1.08;;;5.80;99.90;;;;;;5021836;28;20044;-86
2022/01/09 07:06:37;;;;;;;11.95;1.63;;;6.10;99.90;;;;;;5029065;28;20116;-86
2022/01/09 07:09:04;;;;;;;10.43;1.38;;;5.70;99.90;;;;;;5003691;28;20080;-86
2022/01/09 07:11:30;;;;;;;7.75;0.90;;;5.60;99.90;;;;;;5027517;28;20034;-86
2022/01/09 07:13:55;;;;;;;6.88;1.00;;;5.40;99.90;;;;;;5021140;28;20045;-86
2022/01/09 07:16:21;;;;;;;7.47;0.82;;;5.40;99.90;;;;;;5003815;28;20042;-83
2022/01/09 07:18:47;;;;;;;15.07;2.00;;;5.40;99.90;;;;;;5006436;28;20041;-83
2022/01/09 07:21:12;;;;;;;7.20;1.05;;;5.40;99.90;;;;;;5005717;28;20041;-86
2022/01/09 07:23:38;;;;;;;6.63;0.80;;;5.40;99.90;;;;;;5023456;28;20129;-85
2022/01/09 07:26:04;;;;;;;11.02;1.17;;;5.30;99.90;;;;;;5006885;28;20041;-85
2022/01/09 07:28:30;;;;;;;7.50;0.90;;;5.30;99.90;;;;;;5006223;28;20045;-86
2022/01/09 07:30:55;;;;;;;5.38;1.08;;;5.80;99.90;;;;;;5000455;28;20080;-87
2022/01/09 07:33:21;;;;;;;14.15;1.40;;;5.20;99.90;;;;;;4990400;28;20399;-86
2022/01/09 07:35:47;;;;;;;11.15;1.10;;;5.20;99.90;;;;;;5003806;28;20488;-86
2022/01/09 07:38:13;;;;;;;14.93;1.55;;;5.20;99.90;;;;;;5021461;28;20405;-85
2022/01/09 07:40:38;;;;;;;12.80;1.33;;;6.00;99.90;;;;;;5021001;28;20056;-85
2022/01/09 07:43:04;;;;;;;10.52;1.00;;;5.30;99.90;;;;;;5027939;28;20644;-86
2022/01/09 07:45:30;;;;;;;13.68;0.90;;;5.20;99.90;;;;;;5024029;28;20046;-85
2022/01/09 07:47:58;;;;;;;11.52;1.65;;;5.20;99.90;;;;;;5006519;28;20050;-86
2022/01/09 07:50:26;;;;;;;13.73;1.42;;;5.50;99.90;;;;;;5024155;28;20077;-85
2022/01/09 07:52:53;;;;;;;6.80;1.20;;;5.20;99.90;;;;;;5022264;28;20053;-85
2022/01/09 07:55:20;;;;;;;8.32;1.13;;;5.20;99.90;;;;;;5003146;28;20145;-85
2022/01/09 07:57:47;;;;;;;6.97;0.80;;;5.10;99.90;;;;;;5021422;28;20046;-84
2022/01/09 08:00:14;;;;;;;8.25;1.33;;;5.10;99.90;;;;;;5017411;28;20068;-84
2022/01/09 08:02:41;;;;;;;15.02;1.65;;;5.10;99.90;;;;;;5022170;28;20234;-85
2022/01/09 08:05:07;;;;;;;8.07;1.10;;;5.00;99.90;;;;;;4987478;28;20037;-82
2022/01/09 08:07:32;;;;;;;8.32;0.82;;;5.00;99.90;;;;;;5005280;28;20133;-86
2022/01/09 08:09:58;;;;;;;8.50;1.10;;;5.10;99.90;;;;;;5003586;28;20608;-85
2022/01/09 08:12:24;;;;;;;9.93;1.17;;;4.90;99.90;;;;;;5005058;28;20053;-86
2022/01/09 08:14:50;;;;;;;7.82;0.80;;;4.90;99.90;;;;;;5020184;28;20042;-79
2022/01/09 08:17:15;;;;;;;6.03;1.00;;;4.90;99.90;;;;;;5002729;28;20049;-82
2022/01/09 08:19:41;;;;;;;9.32;1.05;;;4.90;99.90;;;;;;5021406;28;20444;-87
2022/01/09 08:22:08;;;;;;;12.02;1.00;;;4.90;99.90;;;;;;5020626;28;20038;-79
2022/01/09 08:24:35;;;;;;;7.15;1.15;;;5.00;99.90;;;;;;5001935;28;20076;-82
2022/01/09 08:27:02;;;;;;;10.10;1.13;;;4.90;99.90;;;;;;5019390;28;20049;-84
2022/01/09 08:29:28;;;;;;;5.35;1.00;;;5.00;99.90;;;;;;5026986;28;20041;-84
2022/01/09 08:31:54;;;;;;;7.60;1.00;;;5.00;99.90;;;;;;5002298;28;20089;-80
2022/01/09 08:34:19;;;;;;;10.88;1.75;;;4.90;99.90;;;;;;5022899;28;20454;-83
2022/01/09 08:36:45;;;;;;;8.45;1.05;;;4.90;99.90;;;;;;5005598;28;20132;-85
2022/01/09 08:39:11;;;;;;;7.72;0.90;;;4.90;99.90;;;;;;5022366;28;20048;-80
2022/01/09 08:41:37;;;;;;;10.80;1.90;;;4.80;99.90;;;;;;5001651;28;20096;-84
2022/01/09 08:44:04;;;;;;;11.65;1.10;;;4.80;99.90;;;;;;5010589;28;20435;-81
2022/01/09 08:46:31;;;;;;;9.15;0.70;;;4.80;99.90;;;;;;5026076;28;20542;-87
2022/01/09 08:48:58;;;;;;;8.90;1.08;;;4.80;99.90;;;;;;5012727;28;20038;-78
2022/01/09 08:51:24;;;;;;;10.95;1.02;;;4.80;99.90;;;;;;4997027;28;20116;-82
2022/01/09 08:53:52;;;;;;;7.00;1.05;;;4.80;99.90;;;;;;5007285;28;20041;-85
2022/01/09 08:56:19;;;;;;;11.40;1.20;;;4.80;99.90;;;;;;4992338;28;20045;-83
2022/01/09 08:58:45;;;;;;;8.32;1.13;;;4.80;99.90;;;;;;5006428;28;20109;-81
2022/01/09 09:01:11;;;;;;;4.22;1.17;;;5.30;99.90;;;;;;5024090;28;20567;-82
2022/01/09 09:03:40;;;;;;;6.88;0.88;;;4.80;99.90;;;;;;5026619;28;20096;-84
2022/01/09 09:06:11;;;;;;;11.70;1.10;;;5.20;99.90;;;;;;5021132;28;20382;-87
2022/01/09 09:08:38;;;;;;;2.67;0.60;;;4.80;99.90;;;;;;5006887;28;20084;-82
2022/01/09 09:11:05;;;;;;;6.53;1.20;;;4.80;99.90;;;;;;5000464;28;20042;-80
2022/01/09 09:13:31;;;;;;;4.95;0.50;;;4.80;99.90;;;;;;5013181;28;20045;-84
2022/01/09 09:15:57;;;;;;;4.93;0.60;;;4.90;99.90;;;;;;5025273;28;20038;-80
2022/01/09 09:18:23;;;;;;;11.85;1.08;;;4.90;99.90;;;;;;5018222;28;20124;-81
2022/01/09 09:20:48;;;;;;;8.48;1.30;;;5.00;99.90;;;;;;5025635;28;20050;-86
2022/01/09 09:23:14;;;;;;;5.47;0.70;;;5.70;99.90;;;;;;5008033;28;20512;-85
2022/01/09 09:25:40;;;;;;;3.03;0.63;;;5.00;99.90;;;;;;5025354;28;20113;-84
2022/01/09 09:28:05;;;;;;;3.95;0.68;;;4.90;99.90;;;;;;5032908;28;20412;-86
2022/01/09 09:30:31;;;;;;;6.03;1.15;;;5.00;99.90;;;;;;5025207;28;20128;-86
2022/01/09 09:32:57;;;;;;;8.55;0.80;;;5.00;99.90;;;;;;5026409;28;20379;-87
2022/01/09 09:35:23;;;;;;;5.10;0.70;;;5.00;99.90;;;;;;5028473;28;20041;-82
2022/01/09 09:37:49;;;;;;;5.95;1.25;;;5.10;99.90;;;;;;5022959;28;20057;-89
2022/01/09 09:40:15;;;;;;;8.40;0.77;;;5.90;99.90;;;;;;5026221;28;20058;-83
2022/01/09 09:42:41;;;;;;;7.32;1.35;;;5.20;99.90;;;;;;5018271;28;20054;-86
2022/01/09 09:45:08;;;;;;;4.20;0.60;;;5.60;99.90;;;;;;5018792;28;20034;-84
2022/01/09 09:47:36;;;;;;;6.80;0.65;;;5.10;99.90;;;;;;5005520;28;20104;-81
2022/01/09 09:50:04;;;;;;;10.18;0.80;;;5.20;99.90;;;;;;5005066;28;20443;-82
2022/01/09 09:52:30;;;;;;;5.00;0.63;;;5.20;99.90;;;;;;5025232;28;20055;-81
2022/01/09 09:54:57;;;;;;;7.03;1.00;;;5.40;99.90;;;;;;5010591;28;20132;-85
2022/01/09 09:57:23;;;;;;;3.13;0.68;;;5.20;99.90;;;;;;5020332;28;20041;-85
2022/01/09 09:59:49;;;;;;;5.57;1.10;;;5.50;99.90;;;;;;5015558;28;20057;-85
2022/01/09 10:02:17;;;;;;;6.20;0.80;;;5.40;99.90;;;;;;5016332;28;20049;-85
2022/01/09 10:05:03;;;;;;;5.70;0.50;;;5.20;99.90;;;;;;5034551;28;20037;-88
2022/01/09 10:07:30;;;;;;;11.07;1.20;;;5.90;99.90;;;;;;5009505;28;20092;-85
2022/01/09 10:10:02;;;;;;;8.05;0.95;;;5.30;99.90;;;;;;5034051;28;20052;-81
2022/01/09 10:12:31;;;;;;;10.48;0.85;;;5.30;99.90;;;;;;5034269;28;20042;-85
2022/01/09 10:15:00;;;;;;;6.82;0.75;;;5.40;99.90;;;;;;5016770;28;20053;-83
2022/01/09 10:17:26;;;;;;;7.72;1.75;;;5.30;99.90;;;;;;5032607;28;20080;-84
2022/01/09 10:20:01;;;;;;;2.45;0.50;;;5.50;99.90;;;;;;5022129;28;20464;-84
2022/01/09 10:22:44;;;;;;;8.32;0.60;;;5.40;99.90;;;;;;5022215;28;20092;-84
2022/01/09 10:25:32;;;;;;;6.28;0.88;;;5.50;99.90;;;;;;5004439;28;20128;-82
2022/01/09 10:28:12;;;;;;;9.85;0.68;;;5.80;99.90;;;;;;5007305;28;20381;-81
2022/01/09 10:30:51;;;;;;;7.50;0.85;;;5.40;99.90;;;;;;5023796;28;20129;-85
2022/01/09 10:33:21;;;;;;;7.35;0.50;;;6.00;99.90;;;;;;5025267;28;20439;-85
2022/01/09 10:35:49;;;;;;;10.30;1.05;;;5.40;99.90;;;;;;5021761;28;20045;-85
2022/01/09 10:38:17;;;;;;;4.20;0.90;;;6.20;99.90;;;;;;5029462;28;20049;-84
2022/01/09 10:40:45;;;;;;;4.38;0.70;;;5.70;99.90;;;;;;5006893;28;20052;-85
2022/01/09 10:43:18;;;;;;;5.63;0.77;;;5.90;99.90;;;;;;5007441;28;20530;-84
2022/01/09 10:45:47;;;;;;;5.88;0.60;;;5.00;99.90;;;;;;5007786;28;20049;-83
2022/01/09 10:48:17;;;;;;;10.57;0.70;;;5.40;99.90;;;;;;5005102;28;20041;-86
2022/01/09 10:50:44;;;;;;;3.03;0.45;;;5.90;99.90;;;;;;5001803;28;20049;-82
2022/01/09 10:53:30;;;;;;;5.88;0.77;;;5.50;99.90;;;;;;5032751;28;20080;-85
2022/01/09 10:56:28;;;;;;;7.22;0.88;;;5.50;99.90;;;;;;5030730;28;20140;-85
2022/01/09 10:58:56;;;;;;;4.15;0.70;;;5.80;99.90;;;;;;4968105;28;20118;-85
2022/01/09 11:01:25;;;;;;;2.22;0.40;;;6.40;99.90;;;;;;4955880;28;20122;-85
2022/01/09 11:03:55;;;;;;;4.78;0.50;;;5.60;99.90;;;;;;4970655;28;20094;-87
2022/01/09 11:06:22;;;;;;;2.28;0.40;;;5.60;99.90;;;;;;4954283;28;20055;-85
2022/01/09 11:08:48;;;;;;;2.95;0.55;;;5.60;99.90;;;;;;4971829;28;20430;-85
2022/01/09 11:11:36;;;;;;;6.53;0.60;;;5.60;99.90;;;;;;4971525;28;20061;-87
2022/01/09 11:14:10;;;;;;;3.70;0.47;;;5.70;99.90;;;;;;4971180;28;20469;-89
2022/01/09 11:16:41;;;;;;;5.70;0.60;;;5.70;99.90;;;;;;4978189;28;20623;-87
2022/01/09 11:19:07;;;;;;;2.60;0.50;;;5.70;99.90;;;;;;4972024;28;20050;-87
2022/01/09 11:21:35;;;;;;;3.03;0.40;;;5.70;99.90;;;;;;4973186;28;20498;-87
2022/01/09 11:24:29;;;;;;;3.72;0.65;;;5.80;99.90;;;;;;4971177;28;20076;-84
2022/01/09 11:27:16;;;;;;;6.70;1.08;;;5.80;99.90;;;;;;4971950;28;20098;-85
2022/01/09 11:30:03;;;;;;;3.80;0.77;;;5.90;99.90;;;;;;4972210;28;20047;-84
2022/01/09 11:32:38;;;;;;;5.05;0.70;;;5.80;99.90;;;;;;4955893;28;20062;-85
2022/01/09 11:35:14;;;;;;;6.40;0.70;;;5.80;99.90;;;;;;4999916;28;20136;-85
2022/01/09 11:37:58;;;;;;;11.13;1.05;;;5.80;99.90;;;;;;5014729;28;20041;-84
2022/01/09 11:40:33;;;;;;;8.30;0.80;;;5.80;99.90;;;;;;5032703;28;20196;-85
2022/01/09 11:43:09;;;;;;;2.40;0.40;;;5.80;99.90;;;;;;4999061;28;20124;-85
2022/01/09 11:46:02;;;;;;;7.40;0.55;;;5.80;99.90;;;;;;5015082;28;20120;-85
2022/01/09 11:48:58;;;;;;;3.75;0.60;;;5.80;99.90;;;;;;5014783;28;20113;-84
2022/01/09 11:51:28;;;;;;;9.18;0.80;;;5.70;99.90;;;;;;5032657;28;20054;-86
2022/01/09 11:54:03;;;;;;;5.60;0.82;;;6.50;99.90;;;;;;5014894;28;20049;-85
2022/01/09 11:57:03;;;;;;;5.17;0.80;;;5.80;99.90;;;;;;5015343;28;20140;-86
2022/01/09 11:59:34;;;;;;;8.55;1.45;;;5.80;99.90;;;;;;5032481;28;20381;-85
2022/01/09 12:02:03;;;;;;;5.18;0.55;;;6.60;99.90;;;;;;5014599;28;20397;-85
2022/01/09 12:04:34;;;;;;;6.90;0.82;;;5.90;99.90;;;;;;5032309;28;20052;-87
2022/01/09 12:07:08;;;;;;;1.05;0.43;;;5.90;99.90;;;;;;5032547;28;20295;-86
2022/01/09 12:09:48;;;;;;;3.42;0.40;;;6.90;99.90;;;;;;5014831;28;20049;-86
2022/01/09 12:12:19;;;;;;;1.88;0.70;;;6.00;99.90;;;;;;5014918;28;20132;-86
2022/01/09 12:14:53;;;;;;;7.40;0.88;;;6.40;99.90;;;;;;5015023;28;20049;-86
2022/01/09 12:17:22;;;;;;;3.97;0.50;;;6.90;99.90;;;;;;5032390;28;20053;-85
2022/01/09 12:20:14;;;;;;;4.63;0.90;;;6.20;99.90;;;;;;5014922;28;20373;-85
2022/01/09 12:25:33;;;;;;;10.60;0.85;;;6.30;99.90;;;;;;4932951;29;20150;-86
2022/01/09 12:28:10;;;;;;;7.03;0.77;;;6.50;99.90;;;;;;4916762;29;20119;-86
2022/01/09 12:30:40;;;;;;;7.18;1.08;;;6.60;99.90;;;;;;4920951;29;20059;-82
2022/01/09 12:33:14;;;;;;;4.70;0.82;;;6.80;99.90;;;;;;4920892;29;20055;-83
2022/01/09 12:35:43;;;;;;;11.82;1.25;;;6.80;99.90;;;;;;4936680;29;20187;-82
2022/01/09 12:38:18;;;;;;;6.60;0.60;;;7.50;99.90;;;;;;4936982;29;20052;-82
2022/01/09 12:40:45;;;;;;;9.75;0.95;;;7.00;99.90;;;;;;4936767;29;20063;-82
2022/01/09 12:43:11;;;;;;;5.70;1.02;;;7.90;99.90;;;;;;4936486;29;20054;-82
2022/01/09 12:45:43;;;;;;;8.45;0.98;;;7.10;99.90;;;;;;4936598;29;20143;-82
2022/01/09 12:48:28;;;;;;;5.53;0.70;;;7.00;99.90;;;;;;4920676;29;20534;-82
2022/01/09 12:50:55;;;;;;;7.35;0.80;;;7.10;99.90;;;;;;4936345;29;20055;-82
2022/01/09 12:53:21;;;;;;;4.15;0.77;;;7.50;99.90;;;;;;4920560;29;20187;-83
2022/01/09 12:56:01;;;;;;;3.22;0.40;;;7.20;99.90;;;;;;4936636;29;20112;-83
2022/01/09 12:58:30;;;;;;;9.32;0.70;;;7.10;99.90;;;;;;4945365;28;20059;-82
2022/01/09 13:00:57;;;;;;;5.18;1.23;;;7.20;99.90;;;;;;5035776;28;20399;-83